sensor_id;sensor_type;location;lat;lon;timestamp;pressure;altitude;pressure_sealevel;temperature;humidity
54910;BME280;63189;51.240;9.964;2022-11-15T00:01:32;97547.84;;;9.08;91.66
54910;BME280;63189;51.240;9.964;2022-11-15T00:03:58;97544.34;;;9.09;91.88
54910;BME280;63189;51.240;9.964;2022-11-15T00:06:23;97545.94;;;9.13;91.91
54910;BME280;63189;51.240;9.964;2022-11-15T00:08:48;97538.06;;;9.14;92.09
54910;BME280;63189;51.240;9.964;2022-11-15T00:11:14;97545.66;;;9.22;92.00
54910;BME280;63189;51.240;9.964;2022-11-15T00:13:40;97536.09;;;9.22;91.64
54910;BME280;63189;51.240;9.964;2022-11-15T00:16:05;97536.03;;;9.24;91.89
54910;BME280;63189;51.240;9.964;2022-11-15T00:18:31;97537.66;;;9.28;91.61
54910;BME280;63189;51.240;9.964;2022-11-15T00:21:03;97538.50;;;9.29;91.46
54910;BME280;63189;51.240;9.964;2022-11-15T00:23:28;97548.00;;;9.30;91.37
54910;BME280;63189;51.240;9.964;2022-11-15T00:25:57;97547.00;;;9.34;91.21
54910;BME280;63189;51.240;9.964;2022-11-15T00:28:24;97540.00;;;9.36;91.41
54910;BME280;63189;51.240;9.964;2022-11-15T00:30:49;97541.66;;;9.38;91.18
54910;BME280;63189;51.240;9.964;2022-11-15T00:33:14;97552.75;;;9.43;90.82
54910;BME280;63189;51.240;9.964;2022-11-15T00:35:39;97539.66;;;9.46;91.05
54910;BME280;63189;51.240;9.964;2022-11-15T00:38:05;97546.47;;;9.50;90.97
54910;BME280;63189;51.240;9.964;2022-11-15T00:40:30;97549.06;;;9.50;90.96
54910;BME280;63189;51.240;9.964;2022-11-15T00:42:56;97548.13;;;9.53;90.69
54910;BME280;63189;51.240;9.964;2022-11-15T00:45:22;97549.69;;;9.57;90.57
54910;BME280;63189;51.240;9.964;2022-11-15T00:47:48;97543.75;;;9.53;90.45
54910;BME280;63189;51.240;9.964;2022-11-15T00:50:13;97541.94;;;9.55;90.34
54910;BME280;63189;51.240;9.964;2022-11-15T00:52:39;97547.03;;;9.59;90.11
54910;BME280;63189;51.240;9.964;2022-11-15T00:55:04;97542.81;;;9.56;89.61
54910;BME280;63189;51.240;9.964;2022-11-15T00:57:30;97537.72;;;9.53;89.69
54910;BME280;63189;51.240;9.964;2022-11-15T00:59:55;97546.25;;;9.57;89.63
54910;BME280;63189;51.240;9.964;2022-11-15T01:02:20;97533.34;;;9.53;89.69
54910;BME280;63189;51.240;9.964;2022-11-15T01:04:46;97545.47;;;9.54;89.47
54910;BME280;63189;51.240;9.964;2022-11-15T01:07:11;97543.66;;;9.57;89.51
54910;BME280;63189;51.240;9.964;2022-11-15T01:09:36;97548.97;;;9.53;89.10
54910;BME280;63189;51.240;9.964;2022-11-15T01:12:02;97549.06;;;9.50;89.34
54910;BME280;63189;51.240;9.964;2022-11-15T01:14:27;97541.41;;;9.46;89.20
54910;BME280;63189;51.240;9.964;2022-11-15T01:16:52;97538.75;;;9.47;88.87
54910;BME280;63189;51.240;9.964;2022-11-15T01:19:18;97540.56;;;9.45;88.91
54910;BME280;63189;51.240;9.964;2022-11-15T01:21:43;97537.03;;;9.46;89.06
54910;BME280;63189;51.240;9.964;2022-11-15T01:24:12;97538.00;;;9.44;88.80
54910;BME280;63189;51.240;9.964;2022-11-15T01:26:37;97523.34;;;9.41;88.92
54910;BME280;63189;51.240;9.964;2022-11-15T01:29:02;97539.88;;;9.40;89.05
54910;BME280;63189;51.240;9.964;2022-11-15T01:31:28;97533.75;;;9.41;88.83
54910;BME280;63189;51.240;9.964;2022-11-15T01:33:53;97535.56;;;9.39;88.78
54910;BME280;63189;51.240;9.964;2022-11-15T01:36:21;97527.78;;;9.38;88.88
54910;BME280;63189;51.240;9.964;2022-11-15T01:38:47;97533.94;;;9.35;89.11
54910;BME280;63189;51.240;9.964;2022-11-15T01:41:20;97545.25;;;9.34;89.08
54910;BME280;63189;51.240;9.964;2022-11-15T01:43:49;97517.66;;;9.30;89.10
54910;BME280;63189;51.240;9.964;2022-11-15T01:46:34;97535.00;;;9.30;88.79
54910;BME280;63189;51.240;9.964;2022-11-15T01:49:05;97529.03;;;9.26;89.13
54910;BME280;63189;51.240;9.964;2022-11-15T01:51:36;97518.72;;;9.23;89.51
54910;BME280;63189;51.240;9.964;2022-11-15T01:54:07;97514.66;;;9.14;89.67
54910;BME280;63189;51.240;9.964;2022-11-15T01:56:40;97522.41;;;9.16;89.59
54910;BME280;63189;51.240;9.964;2022-11-15T01:59:08;97514.88;;;9.08;89.61
54910;BME280;63189;51.240;9.964;2022-11-15T02:01:34;97515.06;;;9.02;89.78
54910;BME280;63189;51.240;9.964;2022-11-15T02:06:35;97508.13;;;9.03;89.63
54910;BME280;63189;51.240;9.964;2022-11-15T02:09:01;97502.13;;;9.01;89.75
54910;BME280;63189;51.240;9.964;2022-11-15T02:11:26;97508.41;;;8.93;89.87
54910;BME280;63189;51.240;9.964;2022-11-15T02:13:53;97505.09;;;8.88;90.00
54910;BME280;63189;51.240;9.964;2022-11-15T02:16:35;97489.56;;;8.87;89.86
54910;BME280;63189;51.240;9.964;2022-11-15T02:21:54;97482.97;;;8.75;90.34
54910;BME280;63189;51.240;9.964;2022-11-15T02:24:50;97485.03;;;8.64;90.57
54910;BME280;63189;51.240;9.964;2022-11-15T02:27:43;97489.25;;;8.68;90.45
54910;BME280;63189;51.240;9.964;2022-11-15T02:32:54;97492.84;;;8.64;90.43
54910;BME280;63189;51.240;9.964;2022-11-15T02:38:54;97481.00;;;8.54;90.95
54910;BME280;63189;51.240;9.964;2022-11-15T02:46:52;97476.13;;;8.45;91.03
54910;BME280;63189;51.240;9.964;2022-11-15T02:49:51;97467.69;;;8.36;91.28
54910;BME280;63189;51.240;9.964;2022-11-15T02:52:20;97469.50;;;8.34;91.36
54910;BME280;63189;51.240;9.964;2022-11-15T02:54:58;97467.72;;;8.33;91.38
54910;BME280;63189;51.240;9.964;2022-11-15T02:57:46;97475.56;;;8.32;91.69
54910;BME280;63189;51.240;9.964;2022-11-15T03:00:18;97472.16;;;8.30;91.60
54910;BME280;63189;51.240;9.964;2022-11-15T03:08:32;97462.81;;;8.24;92.04
54910;BME280;63189;51.240;9.964;2022-11-15T03:11:09;97447.41;;;8.18;92.20
54910;BME280;63189;51.240;9.964;2022-11-15T03:18:56;97461.94;;;8.25;92.17
54910;BME280;63189;51.240;9.964;2022-11-15T03:21:22;97472.28;;;8.27;92.30
54910;BME280;63189;51.240;9.964;2022-11-15T03:23:50;97460.22;;;8.24;92.42
54910;BME280;63189;51.240;9.964;2022-11-15T03:26:18;97457.69;;;8.21;92.17
54910;BME280;63189;51.240;9.964;2022-11-15T03:28:53;97459.41;;;8.22;92.22
54910;BME280;63189;51.240;9.964;2022-11-15T03:31:21;97458.53;;;8.23;91.93
54910;BME280;63189;51.240;9.964;2022-11-15T03:34:10;97448.09;;;8.25;91.68
54910;BME280;63189;51.240;9.964;2022-11-15T03:36:37;97449.91;;;8.21;91.64
54910;BME280;63189;51.240;9.964;2022-11-15T03:39:06;97458.75;;;8.16;91.84
54910;BME280;63189;51.240;9.964;2022-11-15T03:41:40;97461.47;;;8.11;92.27
54910;BME280;63189;51.240;9.964;2022-11-15T03:47:12;97447.94;;;8.00;92.58
54910;BME280;63189;51.240;9.964;2022-11-15T03:49:46;97459.94;;;8.04;92.58
54910;BME280;63189;51.240;9.964;2022-11-15T03:52:18;97451.25;;;8.05;92.62
54910;BME280;63189;51.240;9.964;2022-11-15T03:54:52;97456.47;;;8.05;92.36
54910;BME280;63189;51.240;9.964;2022-11-15T03:57:17;97447.97;;;7.98;92.44
54910;BME280;63189;51.240;9.964;2022-11-15T03:59:43;97463.50;;;8.00;92.46
54910;BME280;63189;51.240;9.964;2022-11-15T04:02:08;97459.16;;;8.00;92.39
54910;BME280;63189;51.240;9.964;2022-11-15T04:04:35;97451.41;;;7.99;92.26
54910;BME280;63189;51.240;9.964;2022-11-15T04:07:00;97458.50;;;7.94;92.83
54910;BME280;63189;51.240;9.964;2022-11-15T04:09:25;97455.06;;;7.93;92.56
54910;BME280;63189;51.240;9.964;2022-11-15T04:11:51;97455.00;;;7.95;92.63
54910;BME280;63189;51.240;9.964;2022-11-15T04:14:16;97459.34;;;7.94;92.59
54910;BME280;63189;51.240;9.964;2022-11-15T04:16:41;97456.03;;;7.89;93.03
54910;BME280;63189;51.240;9.964;2022-11-15T04:19:06;97449.97;;;7.89;92.87
54910;BME280;63189;51.240;9.964;2022-11-15T04:21:58;97452.56;;;7.89;92.73
54910;BME280;63189;51.240;9.964;2022-11-15T04:24:41;97449.97;;;7.89;92.96
54910;BME280;63189;51.240;9.964;2022-11-15T04:27:07;97438.09;;;7.81;93.00
54910;BME280;63189;51.240;9.964;2022-11-15T04:29:32;97448.44;;;7.83;92.55
54910;BME280;63189;51.240;9.964;2022-11-15T04:32:05;97447.59;;;7.81;92.89
54910;BME280;63189;51.240;9.964;2022-11-15T04:34:31;97435.50;;;7.81;92.91
54910;BME280;63189;51.240;9.964;2022-11-15T04:36:56;97423.38;;;7.80;92.95
54910;BME280;63189;51.240;9.964;2022-11-15T04:39:37;97432.84;;;7.83;92.75
54910;BME280;63189;51.240;9.964;2022-11-15T04:42:03;97426.91;;;7.78;93.06
54910;BME280;63189;51.240;9.964;2022-11-15T04:44:28;97427.81;;;7.77;92.84
54910;BME280;63189;51.240;9.964;2022-11-15T04:46:54;97431.25;;;7.77;92.64
54910;BME280;63189;51.240;9.964;2022-11-15T04:49:19;97430.50;;;7.74;92.90
54910;BME280;63189;51.240;9.964;2022-11-15T04:51:45;97421.13;;;7.68;92.89
54910;BME280;63189;51.240;9.964;2022-11-15T04:54:10;97415.09;;;7.68;93.02
54910;BME280;63189;51.240;9.964;2022-11-15T04:56:36;97423.06;;;7.60;93.48
54910;BME280;63189;51.240;9.964;2022-11-15T04:59:01;97422.16;;;7.63;92.88
54910;BME280;63189;51.240;9.964;2022-11-15T05:01:26;97416.19;;;7.59;93.28
54910;BME280;63189;51.240;9.964;2022-11-15T05:03:52;97416.38;;;7.53;93.07
54910;BME280;63189;51.240;9.964;2022-11-15T05:06:35;97414.69;;;7.52;93.08
54910;BME280;63189;51.240;9.964;2022-11-15T05:09:01;97409.50;;;7.52;93.03
54910;BME280;63189;51.240;9.964;2022-11-15T05:11:26;97412.13;;;7.50;93.49
54910;BME280;63189;51.240;9.964;2022-11-15T05:13:52;97412.22;;;7.46;93.73
54910;BME280;63189;51.240;9.964;2022-11-15T05:16:18;97416.72;;;7.41;93.99
54910;BME280;63189;51.240;9.964;2022-11-15T05:18:44;97416.72;;;7.41;94.07
54910;BME280;63189;51.240;9.964;2022-11-15T05:21:13;97414.13;;;7.39;93.73
54910;BME280;63189;51.240;9.964;2022-11-15T05:23:39;97422.81;;;7.38;94.05
54910;BME280;63189;51.240;9.964;2022-11-15T05:26:06;97419.44;;;7.35;94.21
54910;BME280;63189;51.240;9.964;2022-11-15T05:28:32;97413.47;;;7.33;94.47
54910;BME280;63189;51.240;9.964;2022-11-15T05:31:10;97408.41;;;7.27;95.31
54910;BME280;63189;51.240;9.964;2022-11-15T05:33:43;97414.34;;;7.32;94.62
54910;BME280;63189;51.240;9.964;2022-11-15T05:36:38;97419.53;;;7.32;93.88
54910;BME280;63189;51.240;9.964;2022-11-15T05:39:06;97424.88;;;7.26;94.44
54910;BME280;63189;51.240;9.964;2022-11-15T05:41:35;97415.47;;;7.21;94.61
54910;BME280;63189;51.240;9.964;2022-11-15T05:44:03;97427.59;;;7.21;95.09
54910;BME280;63189;51.240;9.964;2022-11-15T05:46:32;97430.16;;;7.22;94.71
54910;BME280;63189;51.240;9.964;2022-11-15T05:48:58;97437.13;;;7.20;94.63
54910;BME280;63189;51.240;9.964;2022-11-15T05:51:24;97437.22;;;7.16;95.24
54910;BME280;63189;51.240;9.964;2022-11-15T05:53:51;97434.63;;;7.16;94.63
54910;BME280;63189;51.240;9.964;2022-11-15T05:56:19;97442.44;;;7.14;95.28
54910;BME280;63189;51.240;9.964;2022-11-15T05:58:45;97451.19;;;7.10;95.55
54910;BME280;63189;51.240;9.964;2022-11-15T06:01:10;97449.50;;;7.09;95.79
54910;BME280;63189;51.240;9.964;2022-11-15T06:03:36;97448.66;;;7.07;95.59
54910;BME280;63189;51.240;9.964;2022-11-15T06:06:03;97437.53;;;7.04;95.96
54910;BME280;63189;51.240;9.964;2022-11-15T06:08:28;97439.22;;;7.05;95.47
54910;BME280;63189;51.240;9.964;2022-11-15T06:10:54;97440.03;;;7.07;95.17
54910;BME280;63189;51.240;9.964;2022-11-15T06:13:19;97446.97;;;7.06;95.38
54910;BME280;63189;51.240;9.964;2022-11-15T06:15:45;97450.44;;;7.05;95.21
54910;BME280;63189;51.240;9.964;2022-11-15T06:18:10;97446.09;;;7.06;96.01
54910;BME280;63189;51.240;9.964;2022-11-15T06:20:35;97448.69;;;7.06;95.53
54910;BME280;63189;51.240;9.964;2022-11-15T06:23:03;97451.34;;;7.04;95.77
54910;BME280;63189;51.240;9.964;2022-11-15T06:25:30;97449.59;;;7.05;95.73
54910;BME280;63189;51.240;9.964;2022-11-15T06:27:56;97457.31;;;7.06;96.11
54910;BME280;63189;51.240;9.964;2022-11-15T06:30:26;97450.44;;;7.05;96.15
54910;BME280;63189;51.240;9.964;2022-11-15T06:32:51;97458.97;;;7.10;96.48
54910;BME280;63189;51.240;9.964;2022-11-15T06:35:17;97453.72;;;7.13;96.61
54910;BME280;63189;51.240;9.964;2022-11-15T06:37:42;97446.78;;;7.14;97.14
54910;BME280;63189;51.240;9.964;2022-11-15T06:40:09;97452.72;;;7.17;97.03
54910;BME280;63189;51.240;9.964;2022-11-15T06:42:37;97455.25;;;7.20;97.02
54910;BME280;63189;51.240;9.964;2022-11-15T06:45:17;97456.13;;;7.21;96.74
54910;BME280;63189;51.240;9.964;2022-11-15T06:47:58;97450.09;;;7.19;96.92
54910;BME280;63189;51.240;9.964;2022-11-15T06:50:24;97457.63;;;7.30;96.54
54910;BME280;63189;51.240;9.964;2022-11-15T06:52:50;97455.00;;;7.31;96.58
54910;BME280;63189;51.240;9.964;2022-11-15T06:55:15;97448.13;;;7.29;96.23
54910;BME280;63189;51.240;9.964;2022-11-15T06:57:48;97450.63;;;7.33;96.37
54910;BME280;63189;51.240;9.964;2022-11-15T07:00:14;97454.94;;;7.33;96.27
54910;BME280;63189;51.240;9.964;2022-11-15T07:02:40;97455.03;;;7.30;95.99
54910;BME280;63189;51.240;9.964;2022-11-15T07:05:05;97454.94;;;7.33;95.83
54910;BME280;63189;51.240;9.964;2022-11-15T07:07:31;97461.84;;;7.34;95.61
54910;BME280;63189;51.240;9.964;2022-11-15T07:09:56;97451.47;;;7.34;95.50
54910;BME280;63189;51.240;9.964;2022-11-15T07:12:21;97446.19;;;7.37;95.26
54910;BME280;63189;51.240;9.964;2022-11-15T07:14:46;97457.34;;;7.40;94.83
54910;BME280;63189;51.240;9.964;2022-11-15T07:17:12;97455.63;;;7.39;95.01
54910;BME280;63189;51.240;9.964;2022-11-15T07:19:37;97448.69;;;7.41;94.91
54910;BME280;63189;51.240;9.964;2022-11-15T07:22:02;97446.03;;;7.43;94.98
54910;BME280;63189;51.240;9.964;2022-11-15T07:24:28;97449.53;;;7.42;95.18
54910;BME280;63189;51.240;9.964;2022-11-15T07:26:53;97443.41;;;7.44;94.82
54910;BME280;63189;51.240;9.964;2022-11-15T07:29:18;97438.13;;;7.47;94.73
54910;BME280;63189;51.240;9.964;2022-11-15T07:31:43;97436.28;;;7.52;94.39
54910;BME280;63189;51.240;9.964;2022-11-15T07:34:09;97448.78;;;7.69;93.71
54910;BME280;63189;51.240;9.964;2022-11-15T07:36:34;97439.75;;;7.84;92.99
54910;BME280;63189;51.240;9.964;2022-11-15T07:39:00;97442.50;;;7.78;92.36
54910;BME280;63189;51.240;9.964;2022-11-15T07:41:25;97444.13;;;7.80;91.84
54910;BME280;63189;51.240;9.964;2022-11-15T07:43:51;97451.78;;;7.87;91.74
54910;BME280;63189;51.240;9.964;2022-11-15T07:46:17;97460.38;;;7.89;91.33
54910;BME280;63189;51.240;9.964;2022-11-15T07:48:43;97456.97;;;7.87;91.10
54910;BME280;63189;51.240;9.964;2022-11-15T07:51:14;97450.13;;;7.84;91.24
54910;BME280;63189;51.240;9.964;2022-11-15T07:53:39;97458.75;;;7.85;91.19
54910;BME280;63189;51.240;9.964;2022-11-15T07:56:08;97445.88;;;7.80;91.14
54910;BME280;63189;51.240;9.964;2022-11-15T07:58:33;97452.03;;;7.77;91.15
54910;BME280;63189;51.240;9.964;2022-11-15T08:01:05;97451.22;;;7.75;91.02
54910;BME280;63189;51.240;9.964;2022-11-15T08:03:31;97444.44;;;7.71;91.44
54910;BME280;63189;51.240;9.964;2022-11-15T08:05:57;97452.28;;;7.68;91.62
54910;BME280;63189;51.240;9.964;2022-11-15T08:08:22;97452.44;;;7.62;91.43
54910;BME280;63189;51.240;9.964;2022-11-15T08:10:47;97448.03;;;7.66;91.79
54910;BME280;63189;51.240;9.964;2022-11-15T08:13:13;97448.03;;;7.66;92.02
54910;BME280;63189;51.240;9.964;2022-11-15T08:15:39;97440.94;;;7.71;91.83
54910;BME280;63189;51.240;9.964;2022-11-15T08:18:08;97448.53;;;7.78;91.66
54910;BME280;63189;51.240;9.964;2022-11-15T08:20:34;97445.59;;;7.91;91.29
54910;BME280;63189;51.240;9.964;2022-11-15T08:23:01;97441.78;;;8.04;90.91
54910;BME280;63189;51.240;9.964;2022-11-15T08:25:28;97450.84;;;8.19;90.23
54910;BME280;63189;51.240;9.964;2022-11-15T08:27:55;97446.94;;;8.33;89.16
54910;BME280;63189;51.240;9.964;2022-11-15T08:30:22;97439.75;;;8.45;88.21
54910;BME280;63189;51.240;9.964;2022-11-15T08:32:48;97434.88;;;8.62;88.06
54910;BME280;63189;51.240;9.964;2022-11-15T08:35:14;97430.06;;;8.78;87.30
54910;BME280;63189;51.240;9.964;2022-11-15T08:37:39;97427.03;;;9.16;85.95
54910;BME280;63189;51.240;9.964;2022-11-15T08:40:05;97421.91;;;9.65;83.43
54910;BME280;63189;51.240;9.964;2022-11-15T08:42:30;97417.88;;;10.73;80.70
54910;BME280;63189;51.240;9.964;2022-11-15T08:44:56;97426.50;;;11.80;76.27
54910;BME280;63189;51.240;9.964;2022-11-15T08:47:21;97411.09;;;12.51;72.99
54910;BME280;63189;51.240;9.964;2022-11-15T08:49:47;97413.03;;;13.19;70.04
54910;BME280;63189;51.240;9.964;2022-11-15T08:52:13;97400.53;;;13.59;67.64
54910;BME280;63189;51.240;9.964;2022-11-15T08:54:39;97403.34;;;13.89;66.78
54910;BME280;63189;51.240;9.964;2022-11-15T08:57:04;97398.66;;;14.27;66.29
54910;BME280;63189;51.240;9.964;2022-11-15T08:59:29;97395.31;;;14.41;63.32
54910;BME280;63189;51.240;9.964;2022-11-15T09:01:54;97384.78;;;14.25;63.85
54910;BME280;63189;51.240;9.964;2022-11-15T09:04:20;97393.41;;;14.11;63.52
54910;BME280;63189;51.240;9.964;2022-11-15T09:06:45;97391.06;;;14.07;63.05
54910;BME280;63189;51.240;9.964;2022-11-15T09:09:10;97377.19;;;14.36;63.38
54910;BME280;63189;51.240;9.964;2022-11-15T09:11:36;97382.97;;;14.75;62.74
54910;BME280;63189;51.240;9.964;2022-11-15T09:14:01;97369.97;;;15.03;61.05
54910;BME280;63189;51.240;9.964;2022-11-15T09:16:26;97365.03;;;15.43;61.54
54910;BME280;63189;51.240;9.964;2022-11-15T09:18:52;97375.47;;;15.58;60.74
54910;BME280;63189;51.240;9.964;2022-11-15T09:21:18;97369.13;;;15.77;59.88
54910;BME280;63189;51.240;9.964;2022-11-15T09:23:44;97361.91;;;16.09;58.21
54910;BME280;63189;51.240;9.964;2022-11-15T09:26:09;97355.25;;;16.44;58.82
54910;BME280;63189;51.240;9.964;2022-11-15T09:28:35;97348.03;;;16.34;55.62
54910;BME280;63189;51.240;9.964;2022-11-15T09:31:03;97357.84;;;16.17;56.73
54910;BME280;63189;51.240;9.964;2022-11-15T09:33:29;97363.56;;;16.24;56.79
54910;BME280;63189;51.240;9.964;2022-11-15T09:35:59;97372.22;;;16.12;56.24
54910;BME280;63189;51.240;9.964;2022-11-15T09:38:24;97358.16;;;15.99;55.81
54910;BME280;63189;51.240;9.964;2022-11-15T09:41:05;97369.50;;;15.99;56.66
54910;BME280;63189;51.240;9.964;2022-11-15T09:46:16;97369.53;;;16.69;55.01
54910;BME280;63189;51.240;9.964;2022-11-15T09:49:03;97353.97;;;16.37;55.58
54910;BME280;63189;51.240;9.964;2022-11-15T09:51:30;97362.06;;;16.20;56.77
54910;BME280;63189;51.240;9.964;2022-11-15T09:56:29;97353.81;;;15.98;59.49
54910;BME280;63189;51.240;9.964;2022-11-15T10:01:37;97360.03;;;15.52;59.29
54910;BME280;63189;51.240;9.964;2022-11-15T10:04:04;97351.91;;;15.43;59.71
54910;BME280;63189;51.240;9.964;2022-11-15T10:06:32;97349.41;;;15.25;59.88
54910;BME280;63189;51.240;9.964;2022-11-15T10:09:14;97357.25;;;15.11;60.31
54910;BME280;63189;51.240;9.964;2022-11-15T10:11:41;97349.28;;;14.83;60.51
54910;BME280;63189;51.240;9.964;2022-11-15T10:14:18;97348.28;;;14.99;61.56
54910;BME280;63189;51.240;9.964;2022-11-15T10:17:06;97343.44;;;15.08;60.17
54910;BME280;63189;51.240;9.964;2022-11-15T10:22:44;97343.94;;;15.14;61.44
54910;BME280;63189;51.240;9.964;2022-11-15T10:27:39;97336.78;;;15.02;62.44
54910;BME280;63189;51.240;9.964;2022-11-15T10:30:16;97332.50;;;15.15;62.63
54910;BME280;63189;51.240;9.964;2022-11-15T10:32:43;97326.31;;;15.16;61.83
54910;BME280;63189;51.240;9.964;2022-11-15T10:35:35;97336.78;;;15.02;61.05
54910;BME280;63189;51.240;9.964;2022-11-15T10:38:10;97323.81;;;14.99;62.33
54910;BME280;63189;51.240;9.964;2022-11-15T10:40:37;97322.97;;;14.98;63.25
54910;BME280;63189;51.240;9.964;2022-11-15T10:45:37;97314.53;;;14.93;64.13
54910;BME280;63189;51.240;9.964;2022-11-15T10:50:36;97306.16;;;14.87;63.54
54910;BME280;63189;51.240;9.964;2022-11-15T10:53:02;97299.41;;;14.83;64.47
54910;BME280;63189;51.240;9.964;2022-11-15T10:55:30;97300.91;;;14.87;64.56
54910;BME280;63189;51.240;9.964;2022-11-15T10:58:04;97295.47;;;14.90;63.42
54910;BME280;63189;51.240;9.964;2022-11-15T11:00:34;97300.66;;;14.91;65.09
54910;BME280;63189;51.240;9.964;2022-11-15T11:03:03;97281.16;;;14.95;63.91
54910;BME280;63189;51.240;9.964;2022-11-15T11:05:36;97284.91;;;14.91;63.92
54910;BME280;63189;51.240;9.964;2022-11-15T11:10:52;97276.84;;;14.64;64.91
54910;BME280;63189;51.240;9.964;2022-11-15T11:13:38;97265.41;;;14.65;65.69
54910;BME280;63189;51.240;9.964;2022-11-15T11:16:26;97263.53;;;14.67;66.07
54910;BME280;63189;51.240;9.964;2022-11-15T11:27:29;97259.34;;;15.09;64.24
54910;BME280;63189;51.240;9.964;2022-11-15T11:35:45;97257.81;;;14.91;64.01
54910;BME280;63189;51.240;9.964;2022-11-15T11:43:41;97246.09;;;14.96;64.37
54910;BME280;63189;51.240;9.964;2022-11-15T11:48:56;97245.91;;;14.99;64.24
54910;BME280;63189;51.240;9.964;2022-11-15T11:51:28;97250.63;;;15.09;65.23
54910;BME280;63189;51.240;9.964;2022-11-15T11:54:03;97256.53;;;15.12;65.40
54910;BME280;63189;51.240;9.964;2022-11-15T11:56:32;97253.13;;;14.96;62.88
54910;BME280;63189;51.240;9.964;2022-11-15T11:59:07;97247.31;;;14.91;65.29
54910;BME280;63189;51.240;9.964;2022-11-15T12:01:42;97248.78;;;14.81;64.09
54910;BME280;63189;51.240;9.964;2022-11-15T12:06:49;97231.06;;;14.70;66.13
54910;BME280;63189;51.240;9.964;2022-11-15T12:09:23;97239.59;;;14.73;66.11
54910;BME280;63189;51.240;9.964;2022-11-15T12:12:08;97233.69;;;14.70;66.91
54910;BME280;63189;51.240;9.964;2022-11-15T12:14:42;97229.81;;;14.61;65.83
54910;BME280;63189;51.240;9.964;2022-11-15T12:17:11;97234.88;;;14.64;66.55
54910;BME280;63189;51.240;9.964;2022-11-15T12:19:38;97218.38;;;14.62;66.80
54910;BME280;63189;51.240;9.964;2022-11-15T12:24:39;97217.25;;;14.66;66.59
54910;BME280;63189;51.240;9.964;2022-11-15T12:29:49;97210.50;;;14.62;64.62
54910;BME280;63189;51.240;9.964;2022-11-15T12:32:31;97200.84;;;14.63;64.87
54910;BME280;63189;51.240;9.964;2022-11-15T12:34:59;97203.72;;;14.58;65.78
54910;BME280;63189;51.240;9.964;2022-11-15T12:37:46;97201.19;;;14.57;65.12
54910;BME280;63189;51.240;9.964;2022-11-15T12:42:42;97205.59;;;14.56;66.06
54910;BME280;63189;51.240;9.964;2022-11-15T12:45:35;97203.34;;;14.50;65.80
54910;BME280;63189;51.240;9.964;2022-11-15T13:06:52;97171.63;;;14.39;66.61
54910;BME280;63189;51.240;9.964;2022-11-15T13:12:00;97165.91;;;14.16;64.68
54910;BME280;63189;51.240;9.964;2022-11-15T13:22:41;97169.13;;;14.22;66.75
54910;BME280;63189;51.240;9.964;2022-11-15T13:28:20;97152.09;;;13.99;66.51
54910;BME280;63189;51.240;9.964;2022-11-15T13:33:16;97152.09;;;13.83;66.35
54910;BME280;63189;51.240;9.964;2022-11-15T13:35:46;97144.44;;;13.80;66.96
54910;BME280;63189;51.240;9.964;2022-11-15T13:38:25;97133.72;;;13.69;66.22
54910;BME280;63189;51.240;9.964;2022-11-15T13:40:53;97136.16;;;13.72;67.31
54910;BME280;63189;51.240;9.964;2022-11-15T13:48:31;97127.81;;;13.49;67.54
54910;BME280;63189;51.240;9.964;2022-11-15T13:50:59;97127.81;;;13.49;67.96
54910;BME280;63189;51.240;9.964;2022-11-15T13:53:25;97120.38;;;13.42;67.62
54910;BME280;63189;51.240;9.964;2022-11-15T13:55:51;97116.06;;;13.41;68.09
54910;BME280;63189;51.240;9.964;2022-11-15T13:58:19;97105.00;;;13.36;69.10
54910;BME280;63189;51.240;9.964;2022-11-15T14:00:45;97121.13;;;13.28;68.34
54910;BME280;63189;51.240;9.964;2022-11-15T14:03:23;97117.16;;;13.21;68.69
54910;BME280;63189;51.240;9.964;2022-11-15T14:06:19;97123.13;;;13.23;69.28
54910;BME280;63189;51.240;9.964;2022-11-15T14:11:23;97122.69;;;13.15;69.60
54910;BME280;63189;51.240;9.964;2022-11-15T14:14:19;97121.16;;;13.11;69.14
54910;BME280;63189;51.240;9.964;2022-11-15T14:16:47;97114.75;;;13.16;69.73
54910;BME280;63189;51.240;9.964;2022-11-15T14:19:33;97112.22;;;13.15;71.37
54910;BME280;63189;51.240;9.964;2022-11-15T14:22:09;97110.69;;;13.11;69.77
54910;BME280;63189;51.240;9.964;2022-11-15T14:24:35;97102.84;;;13.11;70.91
54910;BME280;63189;51.240;9.964;2022-11-15T14:29:44;97105.44;;;13.11;70.61
54910;BME280;63189;51.240;9.964;2022-11-15T14:32:15;97103.19;;;13.05;70.65
54910;BME280;63189;51.240;9.964;2022-11-15T14:34:41;97104.13;;;13.04;70.68
54910;BME280;63189;51.240;9.964;2022-11-15T14:37:19;97096.75;;;12.94;70.05
54910;BME280;63189;51.240;9.964;2022-11-15T14:39:46;97095.81;;;12.95;70.90
54910;BME280;63189;51.240;9.964;2022-11-15T14:42:11;97099.69;;;12.88;70.90
54910;BME280;63189;51.240;9.964;2022-11-15T14:44:37;97102.47;;;12.85;70.59
54910;BME280;63189;51.240;9.964;2022-11-15T14:47:03;97096.63;;;12.80;70.66
54910;BME280;63189;51.240;9.964;2022-11-15T14:49:29;97098.97;;;12.69;70.65
54910;BME280;63189;51.240;9.964;2022-11-15T14:51:55;97100.50;;;12.73;71.05
54910;BME280;63189;51.240;9.964;2022-11-15T14:54:20;97090.03;;;12.73;71.03
54910;BME280;63189;51.240;9.964;2022-11-15T14:56:45;97090.03;;;12.73;71.14
54910;BME280;63189;51.240;9.964;2022-11-15T14:59:11;97076.25;;;12.69;71.35
54910;BME280;63189;51.240;9.964;2022-11-15T15:01:36;97073.75;;;12.68;71.01
54910;BME280;63189;51.240;9.964;2022-11-15T15:04:01;97084.69;;;12.59;70.04
54910;BME280;63189;51.240;9.964;2022-11-15T15:06:27;97082.22;;;12.56;70.00
54910;BME280;63189;51.240;9.964;2022-11-15T15:08:52;97072.16;;;12.48;70.49
54910;BME280;63189;51.240;9.964;2022-11-15T15:11:28;97075.50;;;12.52;70.85
54910;BME280;63189;51.240;9.964;2022-11-15T15:13:54;97081.03;;;12.46;70.82
54910;BME280;63189;51.240;9.964;2022-11-15T15:16:23;97068.03;;;12.44;71.00
54910;BME280;63189;51.240;9.964;2022-11-15T15:18:48;97068.25;;;12.39;70.96
54910;BME280;63189;51.240;9.964;2022-11-15T15:21:22;97070.19;;;12.36;71.10
54910;BME280;63189;51.240;9.964;2022-11-15T15:23:48;97073.19;;;12.28;71.09
54910;BME280;63189;51.240;9.964;2022-11-15T15:26:14;97076.72;;;12.27;71.20
54910;BME280;63189;51.240;9.964;2022-11-15T15:28:39;97064.13;;;12.18;71.05